Daily Tabular Data
[Select Refresh to Update]


6/19/18
Time         Wind Dir   Wind Spd  Wind Gust     Hum In   Humidity    Temp In       Temp  Raw Barom   Tot Rain Wind Chill Heat Ix In Heat Index  Dew Point  DailyRain   HourRain   RainRate
                            mph        mph          %          %         F         F         in         in         F         F         F         F         in         in      in/hr
12:00am           331          0          2         52         89       72.8       59.5      29.14       4.96       59.5       73.8       65.0       56.3       0.00       0.00      0.000
12:30am           342          0          3         52         89       72.7       59.3      29.13       4.96       59.3       73.7       64.8       56.1       0.00       0.00      0.000
1:00am            348          0          2         52         89       72.5       59.1      29.13       4.96       59.1       73.5       64.6       55.9       0.00       0.00      0.000
1:30am            342          0          0         52         89       72.3       58.7      29.13       4.96       58.7       73.3       64.2       55.5       0.00       0.00      0.000
2:00am            343          0          0         52         89       72.1       58.3      29.12       4.96       58.3       73.1       63.8       55.1       0.00       0.00      0.000
2:30am            343          0          0         51         89       71.9       57.6      29.12       4.96       57.6       72.8       63.1       54.4       0.00       0.00      0.000
3:00am            343          0          0         51         89       71.7       58.8      29.12       4.96       58.8       72.6       64.3       55.6       0.00       0.00      0.000
3:30am            343          0          1         51         88       71.4       57.9      29.12       4.96       57.9       72.3       63.2       54.4       0.00       0.00      0.000
4:00am            344          0          1         51         88       71.2       57.5      29.12       4.96       57.5       72.1       62.8       54.0       0.00       0.00      0.000
4:30am            151          0          1         51         88       70.9       57.3      29.12       4.96       57.3       71.8       62.6       53.8       0.00       0.00      0.000
5:00am            152          0          0         52         88       70.7       57.3      29.12       4.96       57.3       71.7       62.6       53.8       0.00       0.00      0.000
5:30am            146          0          0         52         90       70.7       57.9      29.13       4.96       57.9       71.7       63.5       55.0       0.00       0.00      0.000
6:00am             17          0          3         53         90       70.9       58.2      29.13       4.96       58.2       72.0       63.8       55.3       0.00       0.00      0.000
6:30am            360          0          4         53         95       71.0       59.3      29.13       4.96       59.3       72.1       65.7       57.9       0.00       0.00      0.000
7:00am             16          2          4         53         89       71.1       58.8      29.14       4.96       58.8       72.2       64.3       55.6       0.00       0.00      0.000
7:30am              9          0          7         53         88       71.2       59.4      29.14       4.96       59.4       72.3       64.7       55.9       0.00       0.00      0.000
8:00am            340          0          7         53         86       71.3       60.0      29.14       4.96       60.0       72.4       65.1       55.8       0.00       0.00      0.000
8:30am            338          0          5         53         81       71.4       63.2      29.14       4.96       63.2       72.5       67.6       57.3       0.00       0.00      0.000
9:00am            284          0          4         54         77       71.4       65.6      29.14       4.96       65.6       72.6       69.4       58.2       0.00       0.00      0.000
9:30am            342          1          4         54         73       71.3       66.9      29.13       4.96       66.9       72.5       70.2       58.0       0.00       0.00      0.000
10:00am           325          2          6         54         70       71.7       69.3      29.13       4.96       69.3       72.9       72.3       59.1       0.00       0.00      0.000
10:30am             9          3          6         53         66       72.2       69.8      29.13       4.96       69.8       73.3       72.3       57.9       0.00       0.00      0.000
11:00am            12          7          8         52         61       72.7       72.4      29.12       4.96       72.4       73.7       74.3       58.2       0.00       0.00      0.000
11:30am           199          0          8         52         63       73.2       76.0      29.12       4.96       76.0       74.2       78.1       62.5       0.00       0.00      0.000
12:00pm           298          4          8         51         55       73.5       77.0      29.12       4.96       77.0       74.4       78.3       59.6       0.00       0.00      0.000
12:30pm           249          7          9         51         56       73.8       76.6      29.11       4.96       76.6       74.7       78.0       59.7       0.00       0.00      0.000
1:00pm            325          4         11         51         59       74.1       75.0      29.11       4.96       75.0       75.0       76.7       59.7       0.00       0.00      0.000
1:30pm            253          2         13         51         55       74.3       77.5      29.11       4.96       77.5       75.2       78.8       60.1       0.00       0.00      0.000
2:00pm            341          2         11         51         57       74.6       77.1      29.10       4.96       77.1       75.5       78.6       60.7       0.00       0.00      0.000
2:30pm            309          2         13         51         56       74.9       77.7      29.10       4.96       77.7       75.8       79.1       60.8       0.00       0.00      0.000
3:00pm            266          2         11         52         57       75.1       77.2      29.09       4.96       77.2       76.1       78.7       60.8       0.00       0.00      0.000
3:30pm            204          0         12         51         55       75.4       77.9      29.08       4.96       77.9       76.3       79.2       60.4       0.00       0.00      0.000
4:00pm            331          8         10         51         55       75.7       77.9      29.07       4.96       77.9       76.6       79.2       60.4       0.00       0.00      0.000
4:30pm            309          3         11         51         56       76.0       78.0      29.07       4.96       78.0       76.9       79.4       61.0       0.00       0.00      0.000
5:00pm            217          0         10         51         54       76.3       79.2      29.06       4.96       79.2       77.2       80.4       61.1       0.00       0.00      0.000
5:30pm            267          3         10         51         57       76.7       77.2      29.07       4.96       77.2       77.6       78.7       60.8       0.00       0.00      0.000
6:00pm            325          3          7         48         57       77.0       76.8      29.07       4.96       76.8       77.6       78.3       60.4       0.00       0.00      0.000
6:30pm            279          3          9         50         63       76.9       74.0      29.07       4.96       74.0       77.7       76.1       60.6       0.00       0.00      0.000
7:00pm            213          0         10         50         69       76.8       71.1      29.08       4.96       71.1       77.6       73.9       60.4       0.00       0.00      0.000
7:30pm            187          4          9         52         72       75.8       69.4      29.08       4.96       69.4       76.8       72.6       60.0       0.00       0.00      0.000
8:00pm            204          0          8         53         78       74.9       66.4      29.09       4.96       66.4       76.0       70.4       59.3       0.00       0.00      0.000
8:30pm            192          0          7         55         83       73.9       64.6      29.10       4.96       64.6       75.2       69.2       59.3       0.00       0.00      0.000
9:00pm            200          2          6         56         85       72.9       63.7      29.11       4.96       63.7       74.3       68.6       59.1       0.00       0.00      0.000
9:30pm            155          0          6         58         86       71.9       63.0      29.12       4.96       63.0       73.5       68.1       58.8       0.00       0.00      0.000
10:00pm           181          1          5         56         87       73.1       62.3      29.12       4.96       62.3       74.5       67.5       58.4       0.00       0.00      0.000
10:30pm           175          0          4         55         88       73.0       61.8      29.12       4.96       61.8       74.3       67.1       58.2       0.00       0.00      0.000
11:00pm           178          1          6         55         86       72.8       62.9      29.12       4.96       62.9       74.1       68.0       58.7       0.00       0.00      0.000
11:30pm           185          0          3         56         88       72.4       61.4      29.11       4.96       61.4       73.8       66.7       57.8       0.00       0.00      0.000